Time;durP1;ratioP1;P1;durP2;ratioP2;P2;SDS_P1;SDS_P2;PMS_P1;PMS_P2;Temp;Humidity;BMP_temperature;BMP_pressure;BME280_temperature;BME280_humidity;BME280_pressure;Samples;Min_cycle;Max_cycle;Signal;HPM_P1;HPM_P2
2023/05/11 00:01:07;;;;;;;22.40;20.00;;;;;;;11.47;100.00;101266.19;5264010;28;20040;-66
2023/05/11 00:03:38;;;;;;;21.20;18.90;;;;;;;11.45;100.00;101249.66;5264954;28;20105;-68
2023/05/11 00:06:10;;;;;;;22.23;20.03;;;;;;;11.49;100.00;101251.38;5265169;28;20116;-67
2023/05/11 00:08:41;;;;;;;22.93;19.60;;;;;;;11.50;100.00;101257.47;5265184;28;20037;-69
2023/05/11 00:11:13;;;;;;;22.63;20.30;;;;;;;11.49;100.00;101255.72;5264792;28;20124;-67
2023/05/11 00:13:44;;;;;;;22.13;19.30;;;;;;;11.41;100.00;101247.09;5263678;28;20040;-67
2023/05/11 00:16:16;;;;;;;22.90;20.30;;;;;;;11.43;100.00;101246.22;5265109;28;20116;-67
2023/05/11 00:18:48;;;;;;;26.40;20.90;;;;;;;11.40;100.00;101246.25;5265108;28;20060;-67
2023/05/11 00:21:21;;;;;;;24.83;20.92;;;;;;;11.36;100.00;101244.53;5264928;28;20025;-68
2023/05/11 00:23:52;;;;;;;26.30;21.73;;;;;;;11.37;100.00;101234.97;5264809;28;20039;-68
2023/05/11 00:26:25;;;;;;;28.50;23.63;;;;;;;11.34;100.00;101241.06;5264889;28;20468;-68
2023/05/11 00:28:56;;;;;;;;;;;;;;;11.35;100.00;101237.59;5265129;28;20103;-67
2023/05/11 00:31:28;;;;;;;27.52;22.33;;;;;;;11.31;100.00;101236.72;5264489;28;20015;-67
2023/05/11 00:33:59;;;;;;;32.60;24.10;;;;;;;11.30;100.00;101245.47;5262923;28;20060;-68
2023/05/11 00:36:32;;;;;;;32.90;24.03;;;;;;;11.35;100.00;101250.63;5264684;28;20040;-67
2023/05/11 00:39:03;;;;;;;29.95;24.40;;;;;;;11.31;100.00;101255.00;5264657;28;20420;-67
2023/05/11 00:41:35;;;;;;;28.17;23.77;;;;;;;11.34;100.00;101254.13;5264191;28;20029;-67
2023/05/11 00:44:06;;;;;;;33.40;24.17;;;;;;;11.28;100.00;101252.41;5264087;28;20040;-67
2023/05/11 00:46:38;;;;;;;31.80;24.87;;;;;;;11.32;100.00;101258.50;5264514;28;20055;-68
2023/05/11 00:49:09;;;;;;;29.02;23.77;;;;;;;11.31;100.00;101267.19;5264351;28;20033;-67
2023/05/11 00:51:42;;;;;;;29.70;25.27;;;;;;;11.31;100.00;101261.97;5264285;28;20029;-68
2023/05/11 00:54:14;;;;;;;;;;;;;;;11.34;100.00;101266.31;5264569;28;20039;-68
2023/05/11 00:56:47;;;;;;;29.15;24.27;;;;;;;11.26;100.00;101268.97;5264367;28;19913;-66
2023/05/11 00:59:18;;;;;;;36.95;26.58;;;;;;;11.23;100.00;101262.03;5264172;28;20035;-67
2023/05/11 01:01:50;;;;;;;31.40;24.50;;;;;;;11.31;100.00;101261.97;5263033;28;20107;-68
2023/05/11 01:04:21;;;;;;;34.50;25.40;;;;;;;11.32;100.00;101267.19;5264088;28;20033;-69
2023/05/11 01:07:27;;;;;;;33.17;26.13;;;;;;;11.34;100.00;101266.31;5264180;28;20025;-68
2023/05/11 01:10:16;;;;;;;38.30;27.20;;;;;;;11.35;100.00;101273.25;5264027;28;20064;-68
2023/05/11 01:13:03;;;;;;;35.90;27.20;;;;;;;11.36;100.00;101267.16;5263661;28;20029;-67
2023/05/11 01:15:51;;;;;;;32.42;26.38;;;;;;;11.32;100.00;101268.94;5263504;28;20306;-68
2023/05/11 01:18:31;;;;;;;35.47;26.98;;;;;;;11.30;100.00;101261.13;5247515;28;20037;-66
2023/05/11 01:21:04;;;;;;;37.70;28.27;;;;;;;11.28;100.00;101268.06;5242866;28;20033;-67
2023/05/11 01:23:46;;;;;;;36.65;25.77;;;;;;;11.31;100.00;101264.59;5242600;28;20480;-68
2023/05/11 01:26:20;;;;;;;38.13;27.42;;;;;;;11.29;100.00;101271.56;5241807;28;20087;-66
2023/05/11 01:29:24;;;;;;;33.97;27.40;;;;;;;11.30;100.00;101268.06;5243876;28;20033;-67
2023/05/11 01:31:58;;;;;;;36.05;27.45;;;;;;;11.26;100.00;101268.97;5240407;28;20069;-66
2023/05/11 01:34:33;;;;;;;37.55;28.42;;;;;;;11.25;100.00;101267.22;5241847;28;20420;-67
2023/05/11 01:37:11;;;;;;;34.65;27.80;;;;;;;11.25;100.00;101270.72;5241174;28;20030;-67
2023/05/11 01:39:57;;;;;;;35.58;29.30;;;;;;;11.25;100.00;101270.72;5242606;28;20033;-67
2023/05/11 01:42:49;;;;;;;40.78;28.45;;;;;;;11.24;100.00;101271.59;5240005;28;20473;-68
2023/05/11 01:45:21;;;;;;;39.72;29.40;;;;;;;11.24;100.00;101274.22;5242443;28;20041;-68
2023/05/11 01:47:55;;;;;;;39.05;28.67;;;;;;;11.22;100.00;101265.53;5241817;28;20043;-68
2023/05/11 01:50:27;;;;;;;39.53;30.75;;;;;;;11.20;100.00;101269.88;5242430;28;20033;-67
2023/05/11 01:53:01;;;;;;;45.15;30.85;;;;;;;11.26;100.00;101274.19;5242604;28;20034;-66
2023/05/11 01:55:37;;;;;;;45.20;30.60;;;;;;;11.22;100.00;101278.59;5241211;28;20032;-67
2023/05/11 01:58:12;;;;;;;46.85;31.80;;;;;;;11.24;100.00;101275.97;5242260;28;20033;-68
2023/05/11 02:00:45;;;;;;;44.40;31.30;;;;;;;11.19;100.00;101272.50;5251652;28;20032;-68
2023/05/11 02:03:19;;;;;;;42.60;32.05;;;;;;;11.17;100.00;101267.28;5262146;28;20078;-67
2023/05/11 02:05:52;;;;;;;45.42;33.10;;;;;;;11.15;100.00;101271.66;5261873;28;20032;-68
2023/05/11 02:08:25;;;;;;;51.28;34.28;;;;;;;11.18;100.00;101274.25;5262855;28;20075;-68
2023/05/11 02:10:58;;;;;;;41.83;32.67;;;;;;;11.11;100.00;101268.22;5262814;28;20379;-67
2023/05/11 02:13:33;;;;;;;50.45;33.17;;;;;;;11.11;100.00;101265.59;5262756;28;20155;-67
2023/05/11 02:16:05;;;;;;;48.08;33.35;;;;;;;11.10;100.00;101263.00;5262399;28;20029;-67
2023/05/11 02:18:39;;;;;;;48.28;34.75;;;;;;;11.10;100.00;101260.41;5262863;28;20040;-68
2023/05/11 02:21:14;;;;;;;52.10;36.03;;;;;;;11.05;100.00;101254.34;5262630;28;20464;-67
2023/05/11 02:23:48;;;;;;;51.60;34.88;;;;;;;11.07;100.00;101258.66;5262376;28;20104;-68
2023/05/11 02:26:20;;;;;;;48.53;36.55;;;;;;;11.05;100.00;101255.22;5262963;28;20112;-67
2023/05/11 02:28:52;;;;;;;51.60;35.97;;;;;;;11.02;100.00;101254.38;5262469;28;20029;-68
2023/05/11 02:31:27;;;;;;;56.73;37.83;;;;;;;11.00;100.00;101251.78;5244423;28;20090;-67
2023/05/11 02:34:23;;;;;;;52.40;37.20;;;;;;;10.97;100.00;101257.00;5262057;28;20139;-68
2023/05/11 02:36:59;;;;;;;55.60;37.67;;;;;;;10.93;100.00;101260.50;5260994;28;20025;-68
2023/05/11 02:39:35;;;;;;;55.15;37.80;;;;;;;10.97;100.00;101269.19;5262809;28;20464;-68
2023/05/11 02:42:14;;;;;;;56.15;38.05;;;;;;;10.94;100.00;101262.25;5262450;28;20036;-68
2023/05/11 02:45:07;;;;;;;58.58;39.42;;;;;;;10.95;100.00;101264.84;5262507;28;20479;-67
2023/05/11 02:47:41;;;;;;;;;;;;;;;10.97;100.00;101261.38;5262938;28;20090;-68
2023/05/11 02:50:13;;;;;;;57.92;39.13;;;;;;;10.92;100.00;101259.66;5262400;28;19992;-68
2023/05/11 02:52:47;;;;;;;56.08;40.35;;;;;;;10.94;100.00;101264.84;5262064;28;20033;-67
2023/05/11 02:55:20;;;;;;;53.63;37.75;;;;;;;10.97;100.00;101261.38;5262307;28;20384;-68
2023/05/11 02:57:51;;;;;;;57.17;41.08;;;;;;;10.89;100.00;101251.84;5262240;28;20036;-68
2023/05/11 03:00:23;;;;;;;60.37;42.30;;;;;;;10.86;100.00;101262.28;5262027;28;20029;-68
2023/05/11 03:02:54;;;;;;;51.43;40.40;;;;;;;10.86;100.00;101261.44;5260598;28;20044;-67
2023/05/11 03:05:26;;;;;;;52.23;37.43;;;;;;;10.85;100.00;101265.78;5263360;28;20040;-68
2023/05/11 03:07:59;;;;;;;57.53;39.60;;;;;;;10.79;100.00;101262.31;5266021;28;20041;-67
2023/05/11 03:10:30;;;;;;;;;;;;;;;10.77;100.00;101264.97;5266616;28;20151;-68
2023/05/11 03:13:03;;;;;;;50.70;38.53;;;;;;;10.71;100.00;101270.22;5266272;28;19916;-68
2023/05/11 03:15:36;;;;;;;59.83;42.40;;;;;;;10.64;100.00;101271.09;5266209;28;20036;-66
2023/05/11 03:18:09;;;;;;;62.85;41.63;;;;;;;10.57;100.00;101268.53;5265815;28;20056;-68
2023/05/11 03:20:42;;;;;;;;;;;;;;;10.52;100.00;101285.09;5266245;28;20037;-68
2023/05/11 03:23:15;;;;;;;64.72;43.25;;;;;;;10.58;100.00;101282.44;5266045;28;19951;-67
2023/05/11 03:25:47;;;;;;;68.65;44.65;;;;;;;10.57;100.00;101278.09;5264803;28;20045;-67
2023/05/11 03:28:21;;;;;;;71.00;45.80;;;;;;;10.54;100.00;101275.50;5264853;28;20029;-68
2023/05/11 03:30:53;;;;;;;63.80;44.72;;;;;;;10.52;100.00;101283.34;5265911;28;20033;-67
2023/05/11 03:33:25;;;;;;;70.60;46.33;;;;;;;10.49;100.00;101275.53;5265490;28;20099;-68
2023/05/11 03:35:57;;;;;;;69.53;48.10;;;;;;;10.49;100.00;101278.13;5265732;28;20514;-68
2023/05/11 03:38:29;;;;;;;;;;;;;;;10.41;100.00;101274.69;5266216;28;20033;-67
2023/05/11 03:41:01;;;;;;;73.43;46.35;;;;;;;10.44;100.00;101273.81;5265386;28;19915;-68
2023/05/11 03:43:35;;;;;;;68.67;46.33;;;;;;;10.40;100.00;101275.59;5265364;28;20430;-68
2023/05/11 03:46:07;;;;;;;74.50;48.72;;;;;;;10.35;100.00;101272.09;5264253;28;20426;-68
2023/05/11 03:48:41;;;;;;;76.68;49.00;;;;;;;10.32;100.00;101270.41;5265447;28;20041;-68
2023/05/11 03:51:13;;;;;;;75.15;48.85;;;;;;;10.33;100.00;101269.50;5265504;28;20398;-67
2023/05/11 03:53:45;;;;;;;73.95;46.67;;;;;;;10.29;100.00;101272.97;5265127;28;20037;-68
2023/05/11 03:56:16;;;;;;;77.50;47.80;;;;;;;10.29;100.00;101274.69;5265055;28;20055;-68
2023/05/11 03:58:48;;;;;;;76.77;48.90;;;;;;;10.29;100.00;101277.31;5265447;28;20029;-67
2023/05/11 04:01:21;;;;;;;72.30;47.50;;;;;;;10.28;100.00;101276.44;5265221;28;20025;-67
2023/05/11 04:03:52;;;;;;;81.60;50.03;;;;;;;10.25;100.00;101273.00;5264618;28;20036;-68
2023/05/11 04:06:24;;;;;;;78.73;49.17;;;;;;;10.27;100.00;101268.63;5265071;28;20495;-68
2023/05/11 04:08:55;;;;;;;70.53;47.83;;;;;;;10.31;100.00;101268.63;5264913;28;20109;-68
2023/05/11 04:11:29;;;;;;;81.93;50.67;;;;;;;10.31;100.00;101266.03;5265004;28;20068;-67
2023/05/11 04:14:00;;;;;;;80.07;49.70;;;;;;;10.34;100.00;101270.41;5264609;28;20480;-67
2023/05/11 04:16:31;;;;;;;77.90;51.47;;;;;;;10.35;100.00;101274.72;5264116;28;20113;-67
2023/05/11 04:19:03;;;;;;;86.17;53.00;;;;;;;10.32;100.00;101264.28;5264045;28;20044;-68
2023/05/11 04:21:37;;;;;;;85.63;52.97;;;;;;;10.35;100.00;101270.38;5264365;28;20035;-68
2023/05/11 04:24:08;;;;;;;91.40;53.28;;;;;;;10.34;100.00;101265.19;5263275;28;20349;-68
2023/05/11 04:26:39;;;;;;;102.40;57.10;;;;;;;10.31;100.00;101278.19;5264639;28;20029;-69
2023/05/11 04:29:11;;;;;;;96.43;56.40;;;;;;;10.30;100.00;101268.63;5264517;28;20028;-66
2023/05/11 04:31:43;;;;;;;90.30;53.42;;;;;;;10.32;100.00;101275.63;5246672;28;20075;-67
2023/05/11 04:34:15;;;;;;;97.80;56.23;;;;;;;10.32;100.00;101277.28;5263754;28;20045;-67
2023/05/11 04:36:50;;;;;;;100.57;57.83;;;;;;;10.30;100.00;101273.84;5264374;28;20025;-67
2023/05/11 04:39:21;;;;;;;97.57;58.83;;;;;;;10.33;100.00;101269.50;5264200;28;20324;-67
2023/05/11 04:41:52;;;;;;;96.70;57.03;;;;;;;10.34;100.00;101276.47;5264041;28;20155;-66
2023/05/11 04:44:24;;;;;;;93.73;55.70;;;;;;;10.39;100.00;101281.66;5264110;28;20041;-67
2023/05/11 04:46:56;;;;;;;99.90;61.03;;;;;;;10.51;100.00;101283.34;5263792;28;20456;-67
2023/05/11 04:49:27;;;;;;;96.83;58.57;;;;;;;10.59;100.00;101284.16;5263572;28;20071;-67
2023/05/11 04:51:59;;;;;;;102.93;59.30;;;;;;;10.72;100.00;101282.38;5262454;28;20052;-67
2023/05/11 04:54:30;;;;;;;97.73;58.33;;;;;;;10.81;100.00;101286.69;5263465;28;20024;-67
2023/05/11 04:57:01;;;;;;;105.33;59.70;;;;;;;10.78;100.00;101297.97;5279284;28;20087;-66
2023/05/11 04:59:33;;;;;;;99.70;60.57;;;;;;;10.86;100.00;101288.38;5279236;28;20036;-67
2023/05/11 05:02:04;;;;;;;97.07;58.50;;;;;;;10.97;100.00;101290.91;5263748;28;20134;-66
2023/05/11 05:04:35;;;;;;;89.43;57.37;;;;;;;11.03;100.00;101292.59;5263368;28;20404;-67
2023/05/11 05:07:08;;;;;;;93.33;54.63;;;;;;;11.03;100.00;101293.50;5263842;28;20040;-67
2023/05/11 05:09:39;;;;;;;84.32;53.10;;;;;;;11.04;100.00;101300.41;5263679;28;20060;-68
2023/05/11 05:12:10;;;;;;;85.40;52.27;;;;;;;11.10;100.00;101302.16;5263504;28;20143;-67
2023/05/11 05:14:42;;;;;;;79.13;51.13;;;;;;;11.03;100.00;101300.44;5279065;28;20056;-66
2023/05/11 05:17:13;;;;;;;77.10;50.93;;;;;;;11.14;100.00;101306.47;5263174;28;20066;-66
2023/05/11 05:19:44;;;;;;;76.57;50.73;;;;;;;11.21;100.00;101302.94;5263520;28;20029;-67
2023/05/11 05:22:16;;;;;;;76.70;47.07;;;;;;;11.21;100.00;101308.16;5263074;28;20136;-67
2023/05/11 05:24:47;;;;;;;73.53;47.50;;;;;;;11.26;100.00;101314.19;5263305;28;20480;-67
2023/05/11 05:27:18;;;;;;;65.80;46.20;;;;;;;11.29;100.00;101314.19;5263303;28;20116;-67
2023/05/11 05:29:50;;;;;;;65.77;45.90;;;;;;;11.35;100.00;101309.78;5278195;28;20471;-67
2023/05/11 05:32:21;;;;;;;61.00;45.03;;;;;;;11.37;100.00;101308.91;5262921;28;20061;-66
2023/05/11 05:34:52;;;;;;;61.90;43.83;;;;;;;11.46;100.00;101321.00;5262563;28;20029;-67
2023/05/11 05:37:24;;;;;;;57.97;41.00;;;;;;;11.62;100.00;101320.03;5263100;28;20041;-67
2023/05/11 05:39:55;;;;;;;60.57;42.90;;;;;;;11.65;100.00;101321.72;5262962;28;20033;-66
2023/05/11 05:42:27;;;;;;;57.30;40.20;;;;;;;11.82;100.00;101322.44;5263129;28;20029;-66
2023/05/11 05:44:58;;;;;;;47.47;38.53;;;;;;;11.99;100.00;101322.34;5262589;28;20040;-66
2023/05/11 05:47:29;;;;;;;54.77;41.43;;;;;;;11.95;100.00;101318.00;5262890;28;20349;-68
2023/05/11 05:50:01;;;;;;;53.30;38.60;;;;;;;11.95;100.00;101323.22;5262851;28;20077;-67
2023/05/11 05:52:32;;;;;;;48.47;38.13;;;;;;;12.05;100.00;101337.06;5263558;28;20033;-66
2023/05/11 05:55:04;;;;;;;55.77;40.10;;;;;;;11.99;100.00;101338.00;5262753;28;20091;-66
2023/05/11 05:57:36;;;;;;;57.45;39.10;;;;;;;11.98;100.00;101336.25;5262746;28;20025;-66
2023/05/11 06:00:08;;;;;;;56.07;40.93;;;;;;;11.94;100.00;101331.94;5262720;28;20480;-69
2023/05/11 06:02:40;;;;;;;56.33;39.20;;;;;;;11.95;100.00;101332.81;5262395;28;20032;-66
2023/05/11 06:05:11;;;;;;;61.90;41.70;;;;;;;12.02;100.00;101337.94;5262358;28;20037;-68
2023/05/11 06:07:42;;;;;;;60.67;42.23;;;;;;;12.18;100.00;101333.44;5262630;28;20390;-67
2023/05/11 06:10:14;;;;;;;56.77;41.53;;;;;;;12.25;100.00;101341.22;5262531;28;20036;-66
2023/05/11 06:12:45;;;;;;;62.43;42.40;;;;;;;12.44;100.00;101347.97;5262311;28;20047;-67
2023/05/11 06:15:17;;;;;;;53.27;40.93;;;;;;;12.47;100.00;101342.72;5261140;28;20037;-66
2023/05/11 06:17:48;;;;;;;57.47;42.03;;;;;;;12.43;100.00;101351.47;5262361;28;20029;-66
2023/05/11 06:20:20;;;;;;;55.43;42.03;;;;;;;12.31;100.00;101344.63;5262558;28;20525;-66
2023/05/11 06:22:51;;;;;;;61.97;44.53;;;;;;;12.48;100.00;101348.81;5262220;28;20033;-66
2023/05/11 06:25:23;;;;;;;61.67;44.83;;;;;;;12.44;100.00;101354.97;5262372;28;20071;-67
2023/05/11 06:27:54;;;;;;;62.57;45.00;;;;;;;12.40;100.00;101354.13;5262181;28;20029;-67
2023/05/11 06:30:26;;;;;;;59.03;43.10;;;;;;;12.34;100.00;101349.81;5262397;28;20060;-67
2023/05/11 06:32:57;;;;;;;58.60;42.27;;;;;;;12.37;100.00;101354.16;5261368;28;20053;-66
2023/05/11 06:35:29;;;;;;;58.83;43.10;;;;;;;12.43;100.00;101354.09;5262267;28;20045;-66
2023/05/11 06:38:00;;;;;;;65.20;45.13;;;;;;;12.43;100.00;101348.88;5262175;28;20534;-66
2023/05/11 06:40:31;;;;;;;58.90;44.43;;;;;;;12.43;100.00;101358.44;5261612;28;20025;-66
2023/05/11 06:43:03;;;;;;;63.63;45.00;;;;;;;12.41;100.00;101361.06;5277515;28;20551;-66
2023/05/11 06:45:34;;;;;;;56.37;43.20;;;;;;;12.31;100.00;101354.22;5260959;28;20091;-66
2023/05/11 06:48:06;;;;;;;55.57;43.10;;;;;;;12.34;100.00;101365.50;5262161;28;20021;-66
2023/05/11 06:50:37;;;;;;;57.27;43.80;;;;;;;12.29;100.00;101358.63;5260947;28;20112;-69
2023/05/11 06:53:09;;;;;;;58.50;41.97;;;;;;;12.24;100.00;101369.13;5262060;28;20033;-67
2023/05/11 06:55:40;;;;;;;61.67;42.05;;;;;;;12.15;100.00;101367.44;5261793;28;20029;-67
2023/05/11 06:58:12;;;;;;;61.10;42.37;;;;;;;12.13;100.00;101376.19;5262062;28;20035;-67
2023/05/11 07:00:43;;;;;;;55.37;42.50;;;;;;;12.09;100.00;101361.41;5261968;28;20021;-66
2023/05/11 07:03:15;;;;;;;61.20;42.73;;;;;;;12.09;100.00;101366.63;5261347;28;20040;-67
2023/05/11 07:05:47;;;;;;;63.70;45.07;;;;;;;12.16;100.00;101378.78;5260656;28;20065;-67
2023/05/11 07:08:18;;;;;;;57.57;41.10;;;;;;;12.12;100.00;101375.31;5261856;28;20039;-67
2023/05/11 07:10:50;;;;;;;59.53;43.03;;;;;;;12.22;100.00;101381.34;5262075;28;20167;-67
2023/05/11 07:13:22;;;;;;;61.50;43.28;;;;;;;12.16;100.00;101381.41;5261563;28;20385;-66
2023/05/11 07:15:53;;;;;;;65.10;46.30;;;;;;;12.18;100.00;101377.88;5261746;28;20037;-66
2023/05/11 07:18:24;;;;;;;58.90;44.57;;;;;;;12.24;100.00;101376.09;5261910;28;20029;-67
2023/05/11 07:20:56;;;;;;;67.03;46.27;;;;;;;12.26;100.00;101382.16;5261903;28;20025;-67
2023/05/11 07:23:27;;;;;;;73.30;48.27;;;;;;;12.30;100.00;101376.91;5261925;28;20491;-66
2023/05/11 07:25:59;;;;;;;71.23;49.10;;;;;;;12.29;100.00;101380.38;5261756;28;20037;-66
2023/05/11 07:28:30;;;;;;;69.37;48.23;;;;;;;12.49;100.00;101376.69;5261915;28;20033;-66
2023/05/11 07:31:02;;;;;;;75.10;51.30;;;;;;;12.53;100.00;101379.25;5261828;28;20028;-67
2023/05/11 07:33:36;;;;;;;78.40;55.87;;;;;;;12.51;100.00;101378.41;5261375;28;20052;-67
2023/05/11 07:36:07;;;;;;;84.22;56.90;;;;;;;12.46;100.00;101381.94;5277107;28;20063;-68
2023/05/11 07:38:39;;;;;;;85.97;57.93;;;;;;;12.37;100.00;101386.41;5261790;28;20033;-67
2023/05/11 07:41:10;;;;;;;81.80;55.87;;;;;;;12.30;100.00;101381.25;5261683;28;20120;-68
2023/05/11 07:43:42;;;;;;;83.13;55.67;;;;;;;12.37;100.00;101385.53;5261610;28;20029;-66
2023/05/11 07:46:13;;;;;;;88.07;55.50;;;;;;;12.44;100.00;101381.97;5261657;28;20037;-66
2023/05/11 07:48:45;;;;;;;86.27;56.63;;;;;;;12.57;100.00;101383.56;5261545;28;20029;-66
2023/05/11 07:51:17;;;;;;;79.38;55.17;;;;;;;12.63;100.00;101387.00;5276887;28;20041;-66
2023/05/11 07:53:48;;;;;;;82.37;53.90;;;;;;;12.51;100.00;101394.09;5264687;28;20464;-67
2023/05/11 07:56:20;;;;;;;81.93;54.00;;;;;;;12.40;100.00;101394.22;5264877;28;20078;-67
2023/05/11 07:58:51;;;;;;;88.33;57.60;;;;;;;12.29;100.00;101395.22;5265200;28;20025;-68
2023/05/11 08:01:23;;;;;;;83.67;54.13;;;;;;;12.28;100.00;101393.47;5265353;28;20476;-67
2023/05/11 08:03:54;;;;;;;87.73;58.93;;;;;;;12.32;100.00;101398.66;5264650;28;20055;-66
2023/05/11 08:06:25;;;;;;;84.87;57.33;;;;;;;12.23;100.00;101393.50;5265167;28;20029;-66
2023/05/11 08:08:57;;;;;;;90.27;57.87;;;;;;;12.35;100.00;101395.16;5264888;28;20510;-67
2023/05/11 08:11:28;;;;;;;91.60;61.47;;;;;;;12.29;100.00;101401.28;5264796;28;20033;-67
2023/05/11 08:13:59;;;;;;;90.43;59.40;;;;;;;12.31;100.00;101401.28;5264817;28;20116;-67
2023/05/11 08:16:31;;;;;;;88.23;59.33;;;;;;;12.16;100.00;101403.16;5264908;28;20040;-66
2023/05/11 08:19:02;;;;;;;85.43;56.93;;;;;;;12.10;100.00;101407.59;5264625;28;20415;-67
2023/05/11 08:21:34;;;;;;;86.33;59.07;;;;;;;12.10;100.00;101408.44;5264724;28;20033;-67
2023/05/11 08:24:06;;;;;;;90.75;59.83;;;;;;;12.22;100.00;101405.72;5264224;28;20133;-66
2023/05/11 08:26:37;;;;;;;94.67;61.87;;;;;;;12.18;100.00;101411.00;5264431;28;20400;-68
2023/05/11 08:29:10;;;;;;;92.90;60.87;;;;;;;12.26;100.00;101411.78;5264209;28;20066;-67
2023/05/11 08:31:41;;;;;;;94.57;63.50;;;;;;;12.47;100.00;101407.22;5264489;28;20033;-67
2023/05/11 08:34:12;;;;;;;89.40;59.67;;;;;;;12.46;100.00;101408.97;5262121;28;20056;-67
2023/05/11 08:36:44;;;;;;;92.63;60.67;;;;;;;12.57;100.00;101404.50;5264322;28;20033;-68
2023/05/11 08:39:15;;;;;;;86.90;59.83;;;;;;;12.69;100.00;101406.09;5262902;28;20040;-67
2023/05/11 08:41:50;;;;;;;88.20;57.83;;;;;;;12.89;100.00;101397.13;5264193;28;20102;-67
2023/05/11 08:44:21;;;;;;;84.05;55.90;;;;;;;12.93;100.00;101404.94;5264314;28;20483;-68
2023/05/11 08:46:53;;;;;;;79.07;56.00;;;;;;;13.14;100.00;101405.53;5264408;28;20142;-66
2023/05/11 08:49:25;;;;;;;78.53;55.25;;;;;;;13.05;100.00;101405.66;5263890;28;20033;-67
2023/05/11 08:51:56;;;;;;;82.37;55.17;;;;;;;13.08;100.00;101403.84;5263053;28;20053;-67
2023/05/11 08:54:28;;;;;;;78.43;56.17;;;;;;;12.97;100.00;101411.00;5263945;28;20033;-66
2023/05/11 08:57:00;;;;;;;83.37;58.13;;;;;;;13.17;100.00;101407.25;5263990;28;20104;-67
2023/05/11 08:59:33;;;;;;;80.90;56.88;;;;;;;13.56;100.00;101403.22;5263953;28;20025;-67
2023/05/11 09:02:05;;;;;;;78.53;56.70;;;;;;;13.81;100.00;101411.56;5263855;28;20654;-67
2023/05/11 09:04:37;;;;;;;78.65;56.22;;;;;;;14.19;100.00;101407.41;5262937;28;20033;-66
2023/05/11 09:07:10;;;;;;;79.17;56.07;;;;;;;14.29;100.00;101415.13;5262462;28;20136;-67
2023/05/11 09:09:42;;;;;;;76.75;53.50;;;;;;;14.57;100.00;101424.22;5263685;28;20264;-67
2023/05/11 09:12:14;;;;;;;81.67;55.70;;;;;;;14.66;99.95;101425.81;5263637;28;20040;-68
2023/05/11 09:14:46;;;;;;;78.78;55.50;;;;;;;14.65;99.38;101426.72;5263499;28;20032;-66
2023/05/11 09:17:17;;;;;;;77.90;56.57;;;;;;;14.43;98.65;101426.22;5263379;28;20487;-67
2023/05/11 09:20:00;;;;;;;79.83;58.63;;;;;;;14.03;100.00;101427.78;5263113;28;20029;-66
2023/05/11 09:22:33;;;;;;;78.30;57.45;;;;;;;13.95;98.24;101423.56;5263242;28;20025;-67
2023/05/11 09:25:05;;;;;;;77.18;56.22;;;;;;;14.20;97.60;101430.13;5263230;28;20132;-67
2023/05/11 09:27:41;;;;;;;71.75;52.72;;;;;;;14.35;96.25;101428.97;5261763;28;20037;-67
2023/05/11 09:30:22;;;;;;;75.72;58.53;;;;;;;14.46;96.70;101433.16;5263382;28;20028;-66
2023/05/11 09:32:58;;;;;;;71.32;54.85;;;;;;;14.67;92.43;101427.56;5262602;28;20045;-67
2023/05/11 09:35:32;;;;;;;75.93;55.28;;;;;;;14.70;94.95;101422.25;5263064;28;20050;-66
2023/05/11 09:38:07;;;;;;;74.05;53.92;;;;;;;14.94;92.97;101428.75;5263100;28;20036;-67
2023/05/11 09:40:48;;;;;;;69.95;50.00;;;;;;;15.16;93.17;101424.81;5263114;28;20025;-67
2023/05/11 09:43:27;;;;;;;68.45;55.25;;;;;;;15.54;90.99;101429.22;5261789;28;20029;-67
2023/05/11 09:46:05;;;;;;;73.60;55.42;;;;;;;15.00;89.02;101432.16;5262894;28;20032;-66
2023/05/11 09:48:37;;;;;;;76.75;59.00;;;;;;;14.49;92.93;101427.84;5262813;28;20139;-67
2023/05/11 09:51:09;;;;;;;83.70;54.67;;;;;;;14.71;92.86;101431.81;5262704;28;20033;-67
2023/05/11 09:53:44;;;;;;;76.43;56.67;;;;;;;14.93;93.28;101428.78;5262736;28;20025;-68
2023/05/11 09:56:15;;;;;;;77.03;55.63;;;;;;;14.62;90.81;101441.63;5262499;28;20041;-67
2023/05/11 09:58:48;;;;;;;76.63;53.83;;;;;;;14.41;93.72;101430.66;5262657;28;20398;-67
2023/05/11 10:01:31;;;;;;;74.28;54.22;;;;;;;14.28;93.94;101434.38;5262627;28;20029;-67
2023/05/11 10:04:03;;;;;;;72.28;53.90;;;;;;;14.13;94.66;101432.88;5261094;28;20086;-67
2023/05/11 10:06:49;;;;;;;74.30;56.80;;;;;;;14.06;95.99;101432.13;5262534;28;20484;-67
2023/05/11 10:09:25;;;;;;;81.55;58.90;;;;;;;13.66;96.66;101424.91;5262681;28;20036;-67
2023/05/11 10:11:56;;;;;;;73.60;52.78;;;;;;;13.84;96.40;101427.22;5261032;28;20032;-67
2023/05/11 10:14:30;;;;;;;73.73;52.73;;;;;;;14.56;94.40;101427.72;5261685;28;20029;-66
2023/05/11 10:17:03;;;;;;;74.25;56.35;;;;;;;14.29;93.12;101429.09;5261801;28;20055;-66
2023/05/11 10:19:34;;;;;;;73.47;55.83;;;;;;;14.40;91.75;101428.91;5262555;28;20029;-67
2023/05/11 10:22:06;;;;;;;78.20;54.57;;;;;;;14.56;92.23;101435.59;5261028;28;20043;-66
2023/05/11 10:24:38;;;;;;;70.85;53.80;;;;;;;14.64;89.51;101442.50;5261333;28;20491;-67
2023/05/11 10:27:11;;;;;;;62.67;48.17;;;;;;;14.59;87.37;101438.19;5262302;28;20029;-67
2023/05/11 10:29:44;;;;;;;65.07;46.97;;;;;;;14.63;86.29;101444.22;5262300;28;20017;-66
2023/05/11 10:32:17;;;;;;;64.95;49.47;;;;;;;15.22;86.41;101433.41;5261624;28;20120;-66
2023/05/11 10:34:51;;;;;;;63.78;48.22;;;;;;;15.96;87.76;101425.63;5261757;28;20456;-66
2023/05/11 10:37:23;;;;;;;61.95;46.60;;;;;;;16.51;83.16;101433.84;5262245;28;20029;-66
2023/05/11 10:39:56;;;;;;;55.70;44.97;;;;;;;16.71;78.82;101436.78;5262219;28;20037;-67
2023/05/11 10:42:37;;;;;;;65.38;48.40;;;;;;;16.61;80.55;101440.56;5262187;28;20380;-67
2023/05/11 10:45:45;;;;;;;68.28;51.22;;;;;;;16.55;81.03;101438.09;5262302;28;20079;-67
2023/05/11 10:48:57;;;;;;;65.43;50.00;;;;;;;16.72;83.73;101433.22;5261801;28;20413;-67
2023/05/11 10:51:52;;;;;;;63.10;47.70;;;;;;;16.37;81.50;101432.44;5238829;28;20030;-67
2023/05/11 10:54:33;;;;;;;68.97;51.03;;;;;;;15.74;80.22;101433.97;5230816;28;20060;-66
2023/05/11 10:57:12;;;;;;;68.95;51.97;;;;;;;15.48;84.60;101424.09;5256994;28;20038;-66
2023/05/11 11:00:29;;;;;;;68.22;50.33;;;;;;;16.00;82.13;101425.50;5261954;28;20067;-66
2023/05/11 11:03:11;;;;;;;71.03;52.25;;;;;;;16.37;80.47;101416.66;5259984;28;20028;-67
2023/05/11 11:05:43;;;;;;;61.55;49.10;;;;;;;16.70;77.27;101414.00;5261849;28;20033;-67
2023/05/11 11:08:15;;;;;;;;;;;;;;;17.37;79.19;101412.94;5262495;28;20478;-67
2023/05/11 11:10:48;;;;;;;66.57;48.28;;;;;;;17.18;77.66;101417.03;5261640;28;20031;-67
2023/05/11 11:13:21;;;;;;;65.70;47.50;;;;;;;17.89;73.86;101412.16;5261781;28;20091;-67
2023/05/11 11:15:53;;;;;;;60.83;45.88;;;;;;;18.25;71.91;101419.75;5261660;28;20036;-67
2023/05/11 11:18:26;;;;;;;59.17;45.63;;;;;;;18.05;67.78;101418.69;5261646;28;20384;-67
2023/05/11 11:20:58;;;;;;;57.80;45.38;;;;;;;18.61;68.42;101422.00;5260337;28;20029;-67
2023/05/11 11:23:38;;;;;;;61.22;46.85;;;;;;;18.46;68.69;101424.28;5261975;28;20059;-66
2023/05/11 11:26:14;;;;;;;63.20;44.78;;;;;;;18.39;69.82;101418.34;5262260;28;20482;-66
2023/05/11 11:29:00;;;;;;;63.22;44.55;;;;;;;17.58;70.66;101407.88;5264459;28;20476;-66
2023/05/11 11:31:33;;;;;;;60.83;46.38;;;;;;;17.20;72.72;101408.16;5264543;28;20495;-66
2023/05/11 11:34:33;;;;;;;;;;;;;;;17.52;74.46;101408.06;5265501;28;20053;-67